createdAt,value
2022-10-17T00:00:08.352Z,968.74
2022-10-17T00:05:09.804Z,968.75
2022-10-17T00:10:11.795Z,968.7
2022-10-17T00:15:13.224Z,968.68
2022-10-17T00:20:14.658Z,968.71
2022-10-17T00:25:15.781Z,968.78
2022-10-17T00:30:17.870Z,968.78
2022-10-17T00:35:19.480Z,968.81
2022-10-17T00:40:21.440Z,968.85
2022-10-17T00:45:22.688Z,968.86
2022-10-17T00:50:24.450Z,968.89
2022-10-17T00:55:26.353Z,968.91
2022-10-17T01:00:28.137Z,968.87
2022-10-17T01:05:29.290Z,968.84
2022-10-17T01:10:30.864Z,968.84
2022-10-17T01:15:32.979Z,968.86
2022-10-17T01:20:34.709Z,968.78
2022-10-17T01:25:36.044Z,968.78
2022-10-17T01:30:37.339Z,968.8
2022-10-17T01:35:39.248Z,968.82
2022-10-17T01:40:41.001Z,968.81
2022-10-17T01:45:42.769Z,968.84
2022-10-17T01:50:44.119Z,968.77
2022-10-17T01:55:45.521Z,968.75
2022-10-17T02:00:47.553Z,968.74
2022-10-17T02:05:49.012Z,968.69
2022-10-17T02:10:50.751Z,968.72
2022-10-17T02:15:52.503Z,968.68
2022-10-17T02:15:58.761Z,968.72
2022-10-17T02:21:00.892Z,968.73
2022-10-17T02:26:02.524Z,968.68
2022-10-17T02:31:03.905Z,968.7
2022-10-17T02:36:05.336Z,968.76
2022-10-17T02:41:06.527Z,968.81
2022-10-17T02:46:08.731Z,968.87
2022-10-17T02:51:10.652Z,968.87
2022-10-17T02:56:12.068Z,968.94
2022-10-17T03:01:13.991Z,968.96
2022-10-17T03:06:15.390Z,968.93
2022-10-17T03:11:17.349Z,968.95
2022-10-17T03:16:18.667Z,968.96
2022-10-17T03:21:20.171Z,968.96
2022-10-17T03:26:22.149Z,968.97
2022-10-17T03:31:23.385Z,968.96
2022-10-17T03:36:25.166Z,968.96
2022-10-17T03:41:26.649Z,968.98
2022-10-17T03:46:28.285Z,968.98
2022-10-17T03:51:29.706Z,968.99
2022-10-17T03:56:31.809Z,968.94
2022-10-17T04:01:33.489Z,969
2022-10-17T04:06:35.545Z,969.11
2022-10-17T04:11:37.215Z,969.14
2022-10-17T04:16:38.678Z,969.21
2022-10-17T04:21:39.926Z,969.27
2022-10-17T04:26:41.866Z,969.31
2022-10-17T04:31:43.228Z,969.39
2022-10-17T04:46:48.321Z,969.36
2022-10-17T04:51:49.904Z,969.37
2022-10-17T05:37:03.090Z,969.83
2022-10-17T05:42:04.822Z,969.83
2022-10-17T05:47:06.855Z,969.79
2022-10-17T05:52:08.029Z,969.85
2022-10-17T05:57:09.414Z,969.86
2022-10-17T06:02:10.999Z,969.94
2022-10-17T06:12:13.563Z,970
2022-10-17T06:17:16.334Z,970.04
2022-10-17T06:22:16.864Z,970.04
2022-10-17T06:27:18.697Z,970.06
2022-10-17T06:32:20.601Z,970.11
2022-10-17T06:37:22.216Z,970.09
2022-10-17T06:42:23.653Z,970.08
2022-10-17T06:47:25.313Z,970.13
2022-10-17T06:52:27.356Z,970.23
2022-10-17T06:57:29.180Z,970.32
2022-10-17T07:02:30.687Z,970.33
2022-10-17T07:07:32.359Z,970.39
2022-10-17T07:12:33.941Z,970.46
2022-10-17T07:17:35.431Z,970.49
2022-10-17T07:22:37.195Z,970.55
2022-10-17T07:27:39.338Z,970.62
2022-10-17T07:32:40.642Z,970.67
2022-10-17T07:37:42.646Z,970.68
2022-10-17T07:42:43.988Z,970.75
2022-10-17T07:47:45.910Z,970.76
2022-10-17T07:52:47.080Z,970.78
2022-10-17T07:57:48.521Z,970.8
2022-10-17T08:02:50.181Z,970.77
2022-10-17T08:07:51.918Z,970.79
2022-10-17T08:12:53.597Z,970.84
2022-10-17T08:17:55.532Z,970.82
2022-10-17T08:22:57.448Z,970.79
2022-10-17T08:27:58.869Z,970.82
2022-10-17T08:33:01.021Z,970.83
2022-10-17T08:38:02.769Z,970.87
2022-10-17T08:43:04.358Z,970.86
2022-10-17T08:48:05.751Z,970.92
2022-10-17T08:53:06.939Z,970.92
2022-10-17T08:58:08.547Z,970.88
2022-10-17T09:03:10.476Z,970.85
2022-10-17T09:08:11.940Z,970.8
2022-10-17T09:13:13.812Z,970.81
2022-10-17T09:18:16.680Z,970.77
2022-10-17T09:23:16.897Z,970.83
2022-10-17T09:28:18.793Z,970.96
2022-10-17T09:33:28.797Z,970.94
2022-10-17T09:38:22.354Z,970.9
2022-10-17T09:43:23.767Z,970.84
2022-10-17T09:48:25.475Z,970.92
2022-10-17T09:53:26.704Z,970.91
2022-10-17T09:58:27.855Z,971
2022-10-17T10:03:30.000Z,971.08
2022-10-17T10:08:31.160Z,971.1
2022-10-17T10:13:33.039Z,971.1
2022-10-17T10:18:34.788Z,971.03
2022-10-17T10:23:36.514Z,970.99
2022-10-17T10:28:38.499Z,970.95
2022-10-17T10:33:41.653Z,970.95
2022-10-17T10:38:41.865Z,970.93
2022-10-17T10:43:43.661Z,970.99
2022-10-17T10:48:45.119Z,971.03
2022-10-17T10:53:47.236Z,970.98
2022-10-17T10:58:48.730Z,970.93
2022-10-17T11:03:50.678Z,970.93
2022-10-17T11:08:51.922Z,970.86
2022-10-17T11:13:54.139Z,970.92
2022-10-17T11:18:55.815Z,970.85
2022-10-17T11:23:57.374Z,970.77
2022-10-17T11:28:59.397Z,970.77
2022-10-17T11:34:01.263Z,970.8
2022-10-17T11:39:02.569Z,970.79
2022-10-17T11:44:04.459Z,970.75
2022-10-17T11:49:06.024Z,970.75
2022-10-17T11:54:07.954Z,970.75
2022-10-17T11:59:09.519Z,970.68
2022-10-17T12:04:11.704Z,970.64
2022-10-17T12:09:13.705Z,970.63
2022-10-17T12:14:15.628Z,970.64
2022-10-17T12:19:17.560Z,970.64
2022-10-17T12:24:19.561Z,970.58
2022-10-17T12:29:21.782Z,970.56
2022-10-17T12:34:23.135Z,970.53
2022-10-17T12:39:24.468Z,970.49
2022-10-17T12:44:26.215Z,970.51
2022-10-17T12:49:27.813Z,970.52
2022-10-17T12:54:33.619Z,970.53
2022-10-17T12:59:31.829Z,970.57
2022-10-17T13:04:33.751Z,970.55
2022-10-17T13:09:35.354Z,970.54
2022-10-17T13:14:37.201Z,970.53
2022-10-17T13:19:39.274Z,970.5
2022-10-17T13:24:41.045Z,970.47
2022-10-17T13:29:42.456Z,970.49
2022-10-17T13:34:44.239Z,970.52
2022-10-17T13:39:55.038Z,970.53
2022-10-17T13:44:47.977Z,970.48
2022-10-17T13:49:51.553Z,970.51
2022-10-17T13:54:51.176Z,970.43
2022-10-17T13:59:52.901Z,970.42
2022-10-17T14:09:56.840Z,970.48
2022-10-17T14:15:09.999Z,970.54
2022-10-17T14:20:16.363Z,970.52
2022-10-17T14:25:02.783Z,970.57
2022-10-17T14:30:04.014Z,970.54
2022-10-17T14:35:19.068Z,970.56
2022-10-17T14:40:08.247Z,970.59
2022-10-17T14:45:10.055Z,970.64
2022-10-17T14:50:11.135Z,970.66
2022-10-17T14:55:12.981Z,970.69
2022-10-17T15:00:14.587Z,970.76
2022-10-17T15:05:16.439Z,970.73
2022-10-17T15:10:18.558Z,970.75
2022-10-17T15:15:20.430Z,970.75
2022-10-17T15:20:22.459Z,970.73
2022-10-17T15:25:24.400Z,970.8
2022-10-17T15:30:26.529Z,970.83
2022-10-17T15:35:28.241Z,970.85
2022-10-17T15:40:29.459Z,970.91
2022-10-17T15:45:31.382Z,970.93
2022-10-17T15:50:32.754Z,970.94
2022-10-17T15:55:34.602Z,970.95
2022-10-17T16:00:36.672Z,971.01
2022-10-17T16:05:38.318Z,971.02
2022-10-17T16:10:39.994Z,971.11
2022-10-17T16:15:41.450Z,971.16
2022-10-17T16:20:42.676Z,971.18
2022-10-17T16:25:44.688Z,971.27
2022-10-17T16:30:46.262Z,971.3
2022-10-17T16:35:47.602Z,971.32
2022-10-17T16:45:51.465Z,971.38
2022-10-17T16:50:52.705Z,971.43
2022-10-17T16:55:54.490Z,971.49
2022-10-17T17:00:56.470Z,971.57
2022-10-17T17:05:58.430Z,971.66
2022-10-17T17:11:00.127Z,971.66
2022-10-17T17:16:01.790Z,971.68
2022-10-17T17:21:03.062Z,971.68
2022-10-17T17:26:05.046Z,971.73
2022-10-17T17:31:06.941Z,971.79
2022-10-17T17:36:08.872Z,971.81
2022-10-17T17:41:10.757Z,971.85
2022-10-17T17:46:12.816Z,971.89
2022-10-17T17:51:15.025Z,971.89
2022-10-17T17:56:16.341Z,971.87
2022-10-17T18:01:17.796Z,971.91
2022-10-17T18:06:19.674Z,971.92
2022-10-17T18:11:21.984Z,971.93
2022-10-17T18:16:22.928Z,971.98
2022-10-17T18:21:24.179Z,972.01
2022-10-17T18:26:26.147Z,972.02
2022-10-17T18:31:27.790Z,971.98
2022-10-17T18:36:29.504Z,971.99
2022-10-17T18:41:31.376Z,972.03
2022-10-17T18:46:33.341Z,972.06
2022-10-17T18:51:35.084Z,972.1
2022-10-17T18:56:36.657Z,972.06
2022-10-17T19:01:38.556Z,972.06
2022-10-17T19:11:48.755Z,972.07
2022-10-17T19:46:59.736Z,972.12
2022-10-17T19:52:01.307Z,972.13
2022-10-17T19:57:03.838Z,972.15
2022-10-17T20:17:08.860Z,972.23
2022-10-17T20:22:10.947Z,972.25
2022-10-17T20:27:12.515Z,972.26
2022-10-17T20:32:14.611Z,972.27
2022-10-17T20:37:16.444Z,972.29
2022-10-17T20:42:18.192Z,972.33
2022-10-17T20:47:32.852Z,972.35
2022-10-17T20:52:21.502Z,972.34
2022-10-17T20:57:22.701Z,972.34
2022-10-17T21:02:24.492Z,972.34
2022-10-17T21:07:26.281Z,972.38
2022-10-17T21:12:31.508Z,972.39
2022-10-17T21:17:29.680Z,972.4
2022-10-17T21:22:31.578Z,972.4
2022-10-17T21:27:32.868Z,972.31
2022-10-17T21:32:50.950Z,972.38
2022-10-17T21:37:36.302Z,972.42
2022-10-17T21:42:37.923Z,972.42
2022-10-17T21:47:41.750Z,972.36
2022-10-17T21:52:41.572Z,972.32
2022-10-17T21:57:43.424Z,972.31
2022-10-17T22:12:47.977Z,972.34
2022-10-17T22:17:50.014Z,972.36
2022-10-17T22:22:51.895Z,972.32
2022-10-17T22:27:53.851Z,972.36
2022-10-17T22:32:55.181Z,972.34
2022-10-17T22:37:56.887Z,972.42
2022-10-17T22:42:58.537Z,972.38
2022-10-17T22:48:00.337Z,972.42
2022-10-17T22:53:02.419Z,972.46
2022-10-17T22:58:04.463Z,972.48
2022-10-17T23:03:06.229Z,972.41
2022-10-17T23:08:07.719Z,972.37
2022-10-17T23:13:09.182Z,972.33
2022-10-17T23:18:10.963Z,972.36
2022-10-17T23:23:13.264Z,972.38
2022-10-17T23:28:14.857Z,972.38
2022-10-17T23:33:16.608Z,972.32
2022-10-17T23:38:17.807Z,972.27
2022-10-17T23:43:19.415Z,972.27
2022-10-17T23:48:21.438Z,972.23
2022-10-17T23:53:22.989Z,972.27
2022-10-17T23:58:24.926Z,972.21
